Good Hope, Georgia
Current Conditions -  °F | °C
As of 6:35 AM on Thursday 27 Nov 2014 (Local Time) from KWDR Reporting Station
Broken Clouds Broken Clouds  
Wind Chill: 37°   Ceiling: 4600
Heat Index: 43°   Visibility: 10mi
Dew Point: 33°   Wind: 10mph
Humidity: 68%   Direction: 290°WNW
Pressure: 30.17"   Gusts: NA
Location:  33.78°N, 83.61°W
Report Text: KWDR 271135Z AUTO 29009KT 10SM BKN046 06/01 A3017 RMK AO2 T00610005 PWINO
Loading
Personal Weather Stations






























Interactive Weather Map New forecast layout! Learn more

10-Day Weather Forecast

Advertisements
Track Severe Weather on mobile